Flight Track Log - Related Links

Times and Time Zones

All times are in EDT time to prevent confusion due to time zone crossing. See the WJA524 flight status page for this flight to view local times or setup timezone preferences in your user account.

Time Position Orientation Groundspeed Altitude Reporting Facility
EDT Latitude Longitude Course Direction KTS MPH feet Rate Location/Type
09:15PM 48.6333 -123.4667 69° East 150 173 1,700  Level Vancouver Center
09:16PM 48.6500 -123.5500 287° West 190 219 4,300 2,900 Climbing Vancouver Center
09:17PM 48.6000 -123.6000 213° Southwest 230 265 7,500 3,150 Climbing Vancouver Center
09:18PM 48.8844 -122.7240 61° Northeast  Level FlightAware Approximate
09:18PM 48.5667 -123.5000 117° Southeast 280 322 10,600  Level Vancouver Center
09:19PM 48.9372 -122.5435 76° East  Level FlightAware Approximate
09:19PM 48.6167 -123.3667 60° Northeast 350 403 14,000  Level Vancouver Center
09:20PM 48.8934 -122.3919 114° Southeast  Level FlightAware Approximate
09:20PM 48.6833 -123.2500 49° Northeast 390 449 16,900  Level Vancouver Center
09:21PM 48.9403 -122.2424 69° East  Level Estimated
09:21PM 48.7333 -123.0833 65° Northeast 420 483 19,800  Level Vancouver Center
09:22PM 48.8000 -122.9167 59° Northeast 450 518 22,800 2,750 Climbing Vancouver Center
09:23PM 48.8667 -122.7333 61° Northeast 470 541 25,300 2,350 Climbing Vancouver Center
09:24PM 48.9333 -122.5333 63° Northeast 490 564 27,500 2,200 Climbing Vancouver Center
09:25PM 48.9833 -122.3500 67° East 510 587 29,700 2,150 Climbing Vancouver Center
09:26PM 49.0500 -122.1500 63° Northeast 520 598 31,800 2,050 Climbing Vancouver Center
09:27PM 49.0833 -121.9333 77° East 530 610 33,800 1,800 Climbing Vancouver Center
09:28PM 49.1167 -121.7333 76° East 520 598 35,400 1,750 Climbing Vancouver Center
09:29PM 49.1500 -121.5000 78° East 520 598 37,300 1,700 Climbing Vancouver Center
09:30PM 49.1833 -121.2667 78° East 510 587 38,800 850 Climbing Vancouver Center
09:31PM 49.1833 -121.0667 90° East 510 587 39,000 100 Climbing Vancouver Center
09:32PM 49.2000 -120.8667 83° East 500 575 39,000  Level Vancouver Center
09:33PM 49.2667 -120.6833 61° Northeast 490 564 39,000  Level Vancouver Center
09:34PM 49.3000 -120.4667 77° East 490 564 39,000  Level Vancouver Center
09:35PM 49.3500 -120.2833 67° East 490 564 39,000  Level Vancouver Center
09:36PM 49.4167 -120.0833 63° Northeast 490 564 39,000  Level Vancouver Center
09:37PM 49.4500 -119.9000 74° East 490 564 39,000  Level Vancouver Center
09:38PM 49.5167 -119.6833 65° Northeast 500 575 39,000  Level Vancouver Center
09:39PM 49.5667 -119.5000 67° East 510 587 39,000  Level Vancouver Center
09:40PM 49.6167 -119.2833 70° East 500 575 39,000  Level Vancouver Center
09:41PM 49.6833 -119.1000 61° Northeast 500 575 39,000  Level Vancouver Center
09:42PM 49.7167 -118.8833 77° East 510 587 39,000  Level Vancouver Center
09:43PM 49.7667 -118.6833 69° East 510 587 39,000  Level Vancouver Center
09:44PM 49.8167 -118.5000 67° East 510 587 39,000  Level Vancouver Center
09:45PM 49.8667 -118.2833 70° East 510 587 39,000  Level Vancouver Center
09:46PM 49.9167 -118.0833 69° East 510 587 39,000  Level Vancouver Center
09:47PM 49.9667 -117.8833 69° East 510 587 39,000  Level Vancouver Center
09:48PM 50.0333 -117.6667 64° Northeast 510 587 39,000  Level Vancouver Center
09:49PM 50.0667 -117.4500 76° East 510 587 39,000  Level Vancouver Center
09:50PM 50.1167 -117.2500 69° East 510 587 39,000  Level Vancouver Center
09:51PM 50.1333 -117.1333 77° East 500 575 39,000 -429 Level Edmonton Center
09:52PM 50.2000 -116.9333 62° Northeast 500 575 38,200 -1,700 Descending Edmonton Center
09:53PM 50.2333 -116.7333 75° East 490 564 35,600 -2,400 Descending Edmonton Center
09:54PM 50.2667 -116.5333 75° East 510 587 33,400 -2,100 Descending Edmonton Center
09:55PM 50.3333 -116.3000 66° East 500 575 31,400 -2,000 Descending Edmonton Center
09:56PM 50.3667 -116.1167 74° East 490 564 29,400 -2,000 Descending Edmonton Center
09:57PM 50.4167 -115.9167 69° East 470 541 27,400 -1,950 Descending Edmonton Center
09:58PM 50.4500 -115.7167 75° East 470 541 25,500 -1,900 Descending Edmonton Center
09:59PM 50.5000 -115.5167 68° East 460 529 23,600 -1,900 Descending Edmonton Center
10:00PM 50.5500 -115.3333 67° East 450 518 21,700 -1,950 Descending Edmonton Center
10:01PM 50.5833 -115.1667 72° East 440 506 19,700 -2,000 Descending Edmonton Center
10:02PM 50.6167 -114.9833 74° East 430 495 17,700 -1,800 Descending Edmonton Center
10:03PM 50.6500 -114.8000 74° East 420 483 16,100 -1,600 Descending Edmonton Center
10:04PM 50.7000 -114.6500 62° Northeast 380 437 14,500 -1,650 Descending Edmonton Center
10:05PM 50.7500 -114.5333 56° Northeast 360 414 12,800 -1,600 Descending Edmonton Center
10:06PM 50.8167 -114.4333 43° Northeast 340 391 11,300 -1,600 Descending Edmonton Center
10:07PM 50.8833 -114.2833 55° Northeast 330 380 9,600 -1,300 Descending Edmonton Center
10:08PM 50.9167 -114.1667 66° East 300 345 8,700 -750 Descending Edmonton Center
10:09PM 50.9500 -114.0667 62° Northeast 270 311 8,100 -900 Descending Edmonton Center
10:10PM 50.9667 -113.9500 77° East 260 299 6,900 -1,250 Descending Edmonton Center
10:11PM 51.0333 -113.9167 17° North 210 242 5,600 -1,100 Descending Edmonton Center
10:12PM 51.0667 -113.9500 328° Northwest 150 173 4,700 -850 Descending Edmonton Center
10:13PM 51.0667 -114.0000 270° West 140 161 3,900 -550 Descending Edmonton Center
10:14PM 51.1000 -114.0667 309° West 70 81 3,600 -100 Descending Edmonton Center
10:16PM 51.1000 -114.0333 90° East 20 23 3,600  Level Edmonton Center

Login

Don't have an account? Register now (free) for customized features, flight alerts, and more!